Time;durP1;ratioP1;P1;durP2;ratioP2;P2;SDS_P1;SDS_P2;PMS_P1;PMS_P2;Temp;Humidity;BMP_temperature;BMP_pressure;BME280_temperature;BME280_humidity;BME280_pressure;Samples;Min_cycle;Max_cycle;Signal;HPM_P1;HPM_P2
2020/12/19 00:00:16;;;;;;;19.92;2.78;;;19.40;99.90;;;;;;4955505;28;20445;-91
2020/12/19 00:02:43;;;;;;;18.63;3.42;;;19.30;99.90;;;;;;4976591;23;20050;-90
2020/12/19 00:05:10;;;;;;;11.80;2.28;;;19.20;99.90;;;;;;4959986;28;20035;-87
2020/12/19 00:07:38;;;;;;;15.32;2.58;;;19.20;99.90;;;;;;4978586;28;20038;-89
2020/12/19 00:10:06;;;;;;;13.23;2.00;;;19.20;99.90;;;;;;4973495;28;20042;-88
2020/12/19 00:12:34;;;;;;;26.90;2.75;;;19.30;99.90;;;;;;4973762;28;20038;-88
2020/12/19 00:15:08;;;;;;;13.65;2.03;;;19.40;99.90;;;;;;4973173;28;20027;-88
2020/12/19 00:17:35;;;;;;;19.98;3.60;;;19.40;99.90;;;;;;4955896;28;20387;-88
2020/12/19 00:20:03;;;;;;;12.70;3.03;;;19.40;99.90;;;;;;4974783;28;20027;-90
2020/12/19 00:22:30;;;;;;;15.45;2.30;;;19.40;99.90;;;;;;4971228;28;20035;-88
2020/12/19 00:24:57;;;;;;;16.17;2.55;;;19.40;99.90;;;;;;4971342;28;20031;-90
2020/12/19 00:27:24;;;;;;;20.25;3.75;;;19.40;99.90;;;;;;4972578;28;20027;-88
2020/12/19 00:29:52;;;;;;;15.52;5.18;;;19.50;99.90;;;;;;4977644;28;20120;-90
2020/12/19 00:32:20;;;;;;;17.98;3.85;;;19.60;99.90;;;;;;4969987;28;20050;-89
2020/12/19 00:34:48;;;;;;;31.83;3.65;;;19.70;99.90;;;;;;4885957;23;2313358;-92
2020/12/19 00:37:15;;;;;;;11.52;1.83;;;19.80;99.90;;;;;;4934790;28;20180;-88
2020/12/19 00:39:42;;;;;;;25.08;3.47;;;19.80;99.90;;;;;;4944696;29;20031;-87
2020/12/19 00:42:10;;;;;;;20.45;2.53;;;19.70;99.90;;;;;;4947126;28;20073;-87
2020/12/19 00:44:37;;;;;;;18.13;3.50;;;19.50;99.90;;;;;;4939993;29;20019;-87
2020/12/19 00:47:05;;;;;;;16.70;3.35;;;19.50;99.90;;;;;;4946765;28;20028;-87
2020/12/19 00:49:32;;;;;;;13.45;2.78;;;19.60;99.90;;;;;;4934059;29;20493;-87
2020/12/19 00:51:59;;;;;;;14.93;2.03;;;19.60;99.90;;;;;;4946884;29;20467;-88
2020/12/19 00:54:26;;;;;;;15.10;2.20;;;19.60;99.90;;;;;;4935857;29;20027;-87
2020/12/19 00:56:54;;;;;;;10.38;2.05;;;19.60;99.90;;;;;;4936028;29;20039;-88
2020/12/19 00:59:22;;;;;;;14.02;2.42;;;19.50;99.90;;;;;;4953689;28;20042;-87
2020/12/19 01:01:49;;;;;;;14.52;2.20;;;19.60;99.90;;;;;;4950059;29;20027;-88
2020/12/19 01:04:16;;;;;;;17.50;2.17;;;19.60;99.90;;;;;;4934308;28;20090;-89
2020/12/19 01:06:44;;;;;;;18.02;1.85;;;19.60;99.90;;;;;;4937188;29;20038;-87
2020/12/19 01:09:11;;;;;;;13.10;3.30;;;19.70;99.90;;;;;;4953815;28;20038;-88
2020/12/19 01:11:39;;;;;;;17.38;3.15;;;19.50;99.90;;;;;;4939657;28;20096;-81
2020/12/19 01:14:07;;;;;;;22.02;4.32;;;19.40;99.90;;;;;;4937043;29;20102;-81
2020/12/19 01:16:34;;;;;;;15.20;2.92;;;19.10;99.90;;;;;;4944668;29;20274;-83
2020/12/19 01:19:04;;;;;;;17.05;3.35;;;19.00;99.90;;;;;;4933475;29;20477;-81
2020/12/19 01:21:32;;;;;;;14.10;2.65;;;18.90;99.90;;;;;;4934075;29;20397;-82
2020/12/19 01:24:00;;;;;;;17.02;2.75;;;18.90;99.90;;;;;;4936833;29;20401;-82
2020/12/19 01:26:27;;;;;;;20.20;3.25;;;19.00;99.90;;;;;;4937370;29;20442;-85
2020/12/19 01:28:55;;;;;;;22.30;3.28;;;18.90;99.90;;;;;;4952311;28;20074;-85
2020/12/19 01:31:24;;;;;;;16.70;2.53;;;18.90;99.90;;;;;;4940704;29;20050;-87
2020/12/19 01:33:51;;;;;;;16.75;2.58;;;19.00;99.90;;;;;;4945092;29;20063;-86
2020/12/19 01:36:23;;;;;;;17.27;2.65;;;18.80;99.90;;;;;;4982886;23;20496;-84
2020/12/19 01:38:52;;;;;;;16.67;2.95;;;18.60;99.90;;;;;;4968676;23;20134;-85
2020/12/19 01:41:22;;;;;;;20.38;3.05;;;18.60;99.90;;;;;;4970155;28;20050;-86
2020/12/19 01:43:58;;;;;;;15.85;2.63;;;18.60;99.90;;;;;;4974969;23;20058;-85
2020/12/19 01:46:34;;;;;;;19.75;2.30;;;18.70;99.90;;;;;;4970631;28;20106;-85
2020/12/19 01:49:04;;;;;;;16.77;4.82;;;18.70;99.90;;;;;;4959205;28;20035;-85
2020/12/19 01:51:32;;;;;;;21.50;3.95;;;18.70;99.90;;;;;;4952524;28;20026;-85
2020/12/19 01:53:59;;;;;;;16.58;2.55;;;18.70;99.90;;;;;;4976051;23;20051;-85
2020/12/19 01:56:54;;;;;;;22.77;3.65;;;18.80;99.90;;;;;;4951140;28;20015;-86
2020/12/19 01:59:23;;;;;;;18.60;3.60;;;18.90;99.90;;;;;;4936120;28;20039;-85
2020/12/19 02:01:54;;;;;;;12.52;2.75;;;18.90;99.90;;;;;;4923926;29;20119;-85
2020/12/19 02:04:23;;;;;;;10.48;1.55;;;18.80;99.90;;;;;;4935673;29;20051;-85
2020/12/19 02:06:55;;;;;;;13.35;2.17;;;18.80;99.90;;;;;;4947905;28;20023;-82
2020/12/19 02:09:28;;;;;;;12.93;2.50;;;18.90;99.90;;;;;;4967136;23;20261;-85
2020/12/19 02:11:56;;;;;;;19.80;1.98;;;18.80;99.90;;;;;;4969548;28;20027;-86
2020/12/19 02:14:23;;;;;;;12.82;2.67;;;18.70;99.90;;;;;;4952429;28;20295;-83
2020/12/19 02:17:11;;;;;;;16.42;2.13;;;18.70;99.90;;;;;;4970142;28;20023;-82
2020/12/19 02:19:38;;;;;;;9.45;1.92;;;18.80;99.90;;;;;;4951604;28;20023;-84
2020/12/19 02:22:07;;;;;;;11.07;1.60;;;18.80;99.90;;;;;;4949748;28;20425;-84
2020/12/19 02:24:35;;;;;;;16.38;2.97;;;19.00;99.90;;;;;;4948635;28;20027;-86
2020/12/19 02:27:03;;;;;;;15.30;3.10;;;19.00;99.90;;;;;;4950733;28;20509;-80
2020/12/19 02:29:32;;;;;;;9.23;1.88;;;19.10;99.90;;;;;;4950932;28;20035;-78
2020/12/19 02:32:01;;;;;;;15.77;2.60;;;19.10;99.90;;;;;;4951444;28;20412;-82
2020/12/19 02:34:30;;;;;;;15.65;2.15;;;19.20;99.90;;;;;;4952904;28;20129;-84
2020/12/19 02:36:57;;;;;;;12.80;2.22;;;19.20;99.90;;;;;;4952874;28;20041;-85
2020/12/19 02:39:24;;;;;;;15.18;2.47;;;19.30;99.90;;;;;;4956262;29;20027;-86
2020/12/19 02:41:52;;;;;;;15.85;2.38;;;19.40;99.90;;;;;;4965467;23;20047;-85
2020/12/19 02:44:20;;;;;;;15.85;2.55;;;19.20;99.90;;;;;;4955037;28;20033;-84
2020/12/19 02:46:48;;;;;;;13.95;3.03;;;19.00;99.90;;;;;;4971718;28;20049;-92
2020/12/19 02:49:17;;;;;;;15.48;3.40;;;19.00;99.90;;;;;;4973878;28;20042;-92
2020/12/19 02:51:44;;;;;;;15.95;2.58;;;18.90;99.90;;;;;;4955418;28;20118;-85
2020/12/19 02:54:11;;;;;;;18.05;2.78;;;18.90;99.90;;;;;;4973826;28;20030;-87
2020/12/19 02:56:39;;;;;;;15.23;2.83;;;18.80;99.90;;;;;;4973499;28;20035;-87
2020/12/19 02:59:07;;;;;;;14.75;2.95;;;18.60;99.90;;;;;;4966753;28;20025;-87
2020/12/19 03:01:34;;;;;;;12.40;2.30;;;18.60;99.90;;;;;;4965521;28;20031;-86
2020/12/19 03:04:02;;;;;;;15.10;2.55;;;18.50;99.90;;;;;;4966673;28;20039;-81
2020/12/19 03:06:29;;;;;;;15.13;3.00;;;18.50;99.90;;;;;;4967123;28;20073;-81
2020/12/19 03:08:56;;;;;;;20.05;3.40;;;18.40;99.90;;;;;;4972079;28;20067;-81
2020/12/19 03:11:24;;;;;;;18.50;3.83;;;18.30;99.90;;;;;;4971132;28;20061;-81
2020/12/19 03:13:51;;;;;;;17.13;2.63;;;18.30;99.90;;;;;;4969941;28;20034;-82
2020/12/19 03:16:18;;;;;;;15.68;2.45;;;18.30;99.90;;;;;;4972597;28;20063;-81
2020/12/19 03:18:46;;;;;;;14.05;2.63;;;18.40;99.90;;;;;;4973457;28;20038;-81
2020/12/19 03:21:14;;;;;;;13.02;3.03;;;18.40;99.90;;;;;;4972107;28;20528;-81
2020/12/19 03:23:41;;;;;;;18.95;3.25;;;18.40;99.90;;;;;;4965576;28;20027;-81
2020/12/19 03:26:08;;;;;;;13.77;3.05;;;18.50;99.90;;;;;;4964307;28;20396;-80
2020/12/19 03:28:35;;;;;;;17.02;2.83;;;18.40;99.90;;;;;;4968284;28;20134;-80
2020/12/19 03:31:03;;;;;;;12.90;2.67;;;18.40;99.90;;;;;;4971846;28;20076;-81
2020/12/19 03:33:30;;;;;;;15.32;2.63;;;18.40;99.90;;;;;;4971104;28;20026;-80
2020/12/19 03:35:57;;;;;;;12.18;2.10;;;18.40;99.90;;;;;;4964045;28;20042;-80
2020/12/19 03:38:25;;;;;;;10.77;2.90;;;18.30;99.90;;;;;;4965813;28;20018;-81
2020/12/19 03:40:52;;;;;;;19.77;3.08;;;18.40;99.90;;;;;;4966665;28;20058;-84
2020/12/19 03:43:19;;;;;;;15.55;2.92;;;18.30;99.90;;;;;;4968522;23;20058;-82
2020/12/19 03:45:46;;;;;;;14.13;2.92;;;18.40;99.90;;;;;;5008097;23;20555;-81
2020/12/19 03:48:14;;;;;;;18.05;3.00;;;18.30;99.90;;;;;;4951420;28;20041;-80
2020/12/19 03:50:41;;;;;;;12.68;2.30;;;18.30;99.90;;;;;;4985321;23;20059;-79
2020/12/19 03:53:08;;;;;;;16.23;2.40;;;18.30;99.90;;;;;;4967041;28;20065;-80
2020/12/19 03:55:35;;;;;;;13.00;2.55;;;18.30;99.90;;;;;;4963966;28;20031;-81
2020/12/19 03:58:03;;;;;;;16.10;2.78;;;18.30;99.90;;;;;;4965881;28;20109;-81
2020/12/19 04:00:31;;;;;;;17.50;3.92;;;18.30;99.90;;;;;;4985074;23;20055;-79
2020/12/19 04:02:58;;;;;;;14.30;3.05;;;18.40;99.90;;;;;;4969658;28;20027;-80
2020/12/19 04:05:25;;;;;;;19.10;3.80;;;18.50;99.90;;;;;;4968826;28;20058;-81
2020/12/19 04:07:52;;;;;;;16.63;3.72;;;18.50;99.90;;;;;;4968702;28;20027;-81
2020/12/19 04:10:20;;;;;;;18.73;3.67;;;18.60;99.90;;;;;;4952703;28;20116;-81
2020/12/19 04:12:47;;;;;;;17.13;4.35;;;18.60;99.90;;;;;;4967856;28;20031;-81
2020/12/19 04:15:15;;;;;;;10.77;2.72;;;18.60;99.90;;;;;;4966694;28;20392;-80
2020/12/19 04:17:42;;;;;;;12.27;2.10;;;18.50;99.90;;;;;;4977520;23;20043;-79
2020/12/19 04:20:10;;;;;;;11.27;2.45;;;18.30;99.90;;;;;;4949174;28;20030;-80
2020/12/19 04:22:37;;;;;;;16.88;3.25;;;18.40;99.90;;;;;;4965569;28;20180;-81
2020/12/19 04:25:05;;;;;;;13.75;2.28;;;18.40;99.90;;;;;;4968799;28;20023;-81
2020/12/19 04:27:32;;;;;;;13.10;2.92;;;18.50;99.90;;;;;;4968128;28;20023;-80
2020/12/19 04:29:59;;;;;;;16.35;3.15;;;18.60;99.90;;;;;;4970049;28;20054;-80
2020/12/19 04:32:27;;;;;;;15.95;3.30;;;18.50;99.90;;;;;;4949519;28;20023;-80
2020/12/19 04:34:54;;;;;;;11.35;2.92;;;18.50;99.90;;;;;;4964514;28;20062;-80
2020/12/19 04:37:21;;;;;;;13.77;1.77;;;18.40;99.90;;;;;;4968539;28;20026;-79
2020/12/19 04:39:49;;;;;;;11.38;2.03;;;18.40;99.90;;;;;;4968936;28;20093;-80
2020/12/19 04:42:16;;;;;;;9.70;1.95;;;18.40;99.90;;;;;;4969927;28;20457;-80
2020/12/19 04:44:45;;;;;;;12.30;2.47;;;18.40;99.90;;;;;;4968908;28;20076;-80
2020/12/19 04:47:12;;;;;;;11.48;1.80;;;18.40;99.90;;;;;;4969036;28;20027;-81
2020/12/19 04:49:42;;;;;;;10.70;2.55;;;18.50;99.90;;;;;;4988843;23;20061;-81
2020/12/19 04:52:09;;;;;;;9.57;1.83;;;18.50;99.90;;;;;;4960943;28;20065;-81
2020/12/19 04:54:37;;;;;;;14.07;3.05;;;18.50;99.90;;;;;;4955137;28;20403;-81
2020/12/19 04:57:05;;;;;;;9.82;2.50;;;18.50;99.90;;;;;;4975780;28;20499;-81
2020/12/19 04:59:32;;;;;;;10.57;2.65;;;18.60;99.90;;;;;;4988505;28;20030;-82
2020/12/19 05:02:01;;;;;;;11.52;1.92;;;18.50;99.90;;;;;;4986199;28;20073;-82
2020/12/19 05:04:28;;;;;;;14.68;3.33;;;18.60;99.90;;;;;;4986087;28;20116;-82
2020/12/19 05:06:57;;;;;;;12.30;2.35;;;18.60;99.90;;;;;;4986933;28;20391;-81
2020/12/19 05:09:24;;;;;;;12.80;2.35;;;18.70;99.90;;;;;;4983791;28;20507;-82
2020/12/19 05:11:52;;;;;;;12.50;2.38;;;18.90;99.90;;;;;;4987613;28;20031;-80
2020/12/19 05:14:20;;;;;;;15.73;3.20;;;19.00;99.90;;;;;;4982360;28;20034;-81
2020/12/19 05:16:48;;;;;;;14.45;2.78;;;19.00;99.90;;;;;;4984127;28;20026;-81
2020/12/19 05:19:17;;;;;;;15.77;2.80;;;19.00;99.90;;;;;;4987246;28;20126;-80
2020/12/19 05:21:45;;;;;;;16.00;2.30;;;19.10;99.90;;;;;;4986490;28;20042;-80
2020/12/19 05:24:16;;;;;;;12.70;1.85;;;18.80;99.90;;;;;;4986763;28;20411;-81
2020/12/19 05:26:44;;;;;;;12.00;2.42;;;18.80;99.90;;;;;;4984958;28;20480;-81
2020/12/19 05:29:12;;;;;;;11.77;2.13;;;18.70;99.90;;;;;;4986957;28;20173;-82
2020/12/19 05:31:40;;;;;;;22.02;2.53;;;18.70;99.90;;;;;;4986096;28;20503;-83
2020/12/19 05:34:07;;;;;;;10.57;2.17;;;18.60;99.90;;;;;;4988616;28;20042;-82
2020/12/19 05:36:38;;;;;;;15.35;3.03;;;18.60;99.90;;;;;;4981328;28;20028;-82
2020/12/19 05:39:08;;;;;;;20.95;2.92;;;18.60;99.90;;;;;;4988845;28;20041;-81
2020/12/19 05:41:39;;;;;;;24.33;3.03;;;18.50;99.90;;;;;;4987228;28;20027;-82
2020/12/19 05:44:07;;;;;;;11.88;2.55;;;18.50;99.90;;;;;;4989470;28;20057;-85
2020/12/19 05:46:44;;;;;;;13.70;2.75;;;18.40;99.90;;;;;;4969855;28;20089;-77
2020/12/19 05:49:13;;;;;;;11.70;2.20;;;18.50;99.90;;;;;;4990027;28;20049;-82
2020/12/19 05:51:42;;;;;;;18.55;4.75;;;18.60;99.90;;;;;;5016109;23;20039;-81
2020/12/19 05:54:11;;;;;;;16.42;4.07;;;18.50;99.90;;;;;;4957883;23;20574;-80
2020/12/19 05:56:48;;;;;;;20.48;5.72;;;18.50;99.90;;;;;;4949349;28;20082;-81
2020/12/19 05:59:17;;;;;;;22.02;6.05;;;18.50;99.90;;;;;;4983442;23;20059;-80
2020/12/19 06:01:46;;;;;;;10.95;2.60;;;18.60;99.90;;;;;;4969759;28;20030;-81
2020/12/19 06:04:15;;;;;;;22.95;5.78;;;18.60;99.90;;;;;;4970867;28;20023;-80
2020/12/19 06:06:44;;;;;;;13.73;3.83;;;18.50;99.90;;;;;;4982322;23;20133;-81
2020/12/19 06:09:13;;;;;;;13.00;2.92;;;18.60;99.90;;;;;;4984660;28;20522;-81
2020/12/19 06:11:49;;;;;;;13.65;2.35;;;18.60;99.90;;;;;;4994897;28;20463;-80
2020/12/19 06:14:21;;;;;;;14.73;3.10;;;18.60;99.90;;;;;;4961378;28;20041;-80
2020/12/19 06:16:53;;;;;;;14.40;3.25;;;18.60;99.90;;;;;;4961462;28;20023;-81
2020/12/19 06:19:23;;;;;;;16.02;3.33;;;18.60;99.90;;;;;;4987886;28;20114;-81
2020/12/19 06:21:55;;;;;;;15.05;3.15;;;18.70;99.90;;;;;;4966188;28;20031;-81
2020/12/19 06:24:42;;;;;;;15.43;2.90;;;18.70;99.90;;;;;;5000036;23;20561;-80
2020/12/19 06:27:11;;;;;;;15.98;3.33;;;18.80;99.90;;;;;;4989140;28;20037;-80
2020/12/19 06:29:38;;;;;;;12.75;1.85;;;18.80;99.90;;;;;;4978906;28;20093;-81
2020/12/19 06:32:06;;;;;;;15.02;2.85;;;18.80;99.90;;;;;;4983677;28;20057;-83
2020/12/19 06:34:33;;;;;;;9.57;2.42;;;18.80;99.90;;;;;;4980378;28;20023;-82
2020/12/19 06:37:05;;;;;;;12.48;2.17;;;18.80;99.90;;;;;;4978368;28;20133;-83
2020/12/19 06:39:33;;;;;;;14.10;2.72;;;18.80;99.90;;;;;;4978547;28;20041;-83
2020/12/19 06:42:00;;;;;;;19.10;5.15;;;18.80;99.90;;;;;;4965949;28;20025;-82
2020/12/19 06:44:30;;;;;;;18.52;3.58;;;18.90;99.90;;;;;;4998586;28;20018;-81
2020/12/19 06:47:00;;;;;;;21.30;6.72;;;18.90;99.90;;;;;;4991648;28;20507;-82
2020/12/19 06:49:28;;;;;;;10.70;2.42;;;18.90;99.90;;;;;;4962095;28;20035;-83
2020/12/19 06:52:03;;;;;;;16.15;3.55;;;18.90;99.90;;;;;;4982146;28;20551;-83
2020/12/19 06:54:41;;;;;;;12.20;2.60;;;18.90;99.90;;;;;;4997473;28;20534;-83
2020/12/19 06:57:28;;;;;;;10.40;2.92;;;18.90;99.90;;;;;;4963793;23;20417;-82
2020/12/19 07:00:15;;;;;;;16.02;2.90;;;18.80;99.90;;;;;;4939848;29;20512;-85
2020/12/19 07:03:03;;;;;;;12.88;2.85;;;18.80;99.90;;;;;;4947808;28;20034;-86
2020/12/19 07:05:35;;;;;;;13.52;2.17;;;18.60;99.90;;;;;;4956192;28;20023;-87
2020/12/19 07:08:23;;;;;;;21.35;3.30;;;18.70;99.90;;;;;;4956646;28;20471;-88
2020/12/19 07:10:51;;;;;;;12.95;2.70;;;18.60;99.90;;;;;;4957232;28;20039;-85
2020/12/19 07:13:19;;;;;;;12.68;3.03;;;18.60;99.90;;;;;;4956157;28;20039;-82
2020/12/19 07:15:53;;;;;;;17.30;3.72;;;18.60;99.90;;;;;;4953026;28;20027;-83
2020/12/19 07:18:36;;;;;;;19.67;3.15;;;18.60;99.90;;;;;;4943127;28;20035;-84
2020/12/19 07:21:11;;;;;;;14.25;3.22;;;18.60;99.90;;;;;;4951752;28;20484;-84
2020/12/19 07:23:40;;;;;;;13.77;2.85;;;18.70;99.90;;;;;;4948144;28;20524;-83
2020/12/19 07:26:07;;;;;;;13.90;3.17;;;18.60;99.90;;;;;;4949556;28;20174;-85
2020/12/19 07:28:35;;;;;;;17.13;3.10;;;18.70;99.90;;;;;;4951385;28;20076;-80
2020/12/19 07:31:02;;;;;;;17.48;3.75;;;18.60;99.90;;;;;;4951375;28;20389;-79
2020/12/19 07:33:30;;;;;;;14.55;2.88;;;18.60;99.90;;;;;;4949562;28;20027;-81
2020/12/19 07:35:59;;;;;;;48.45;18.45;;;18.70;99.90;;;;;;4955432;28;20019;-80
2020/12/19 07:38:26;;;;;;;13.27;2.50;;;18.80;99.90;;;;;;4949171;28;20023;-84
2020/12/19 07:40:56;;;;;;;12.73;2.95;;;18.70;99.90;;;;;;4955866;28;20093;-81
2020/12/19 07:43:24;;;;;;;14.02;2.55;;;18.70;99.90;;;;;;4955155;29;20024;-83
2020/12/19 07:46:01;;;;;;;12.35;2.88;;;18.60;99.90;;;;;;4953672;28;20522;-82
2020/12/19 07:48:35;;;;;;;13.18;3.28;;;18.70;99.90;;;;;;4961477;28;20020;-84
2020/12/19 07:51:08;;;;;;;11.63;1.95;;;18.70;99.90;;;;;;4955567;29;20096;-84
2020/12/19 07:53:44;;;;;;;13.13;2.80;;;18.50;99.90;;;;;;4955540;29;20421;-82
2020/12/19 07:56:13;;;;;;;12.13;3.28;;;18.50;99.90;;;;;;4950760;28;20031;-85
2020/12/19 07:58:42;;;;;;;14.63;3.05;;;18.50;99.90;;;;;;5003720;23;20039;-81
2020/12/19 08:01:09;;;;;;;16.88;2.88;;;18.50;99.90;;;;;;4989654;23;20069;-85
2020/12/19 08:03:37;;;;;;;13.98;3.38;;;18.50;99.90;;;;;;4973241;28;20102;-85
2020/12/19 08:06:04;;;;;;;15.43;3.10;;;18.60;99.90;;;;;;4981705;23;20186;-83
2020/12/19 08:08:31;;;;;;;16.25;3.40;;;18.60;99.90;;;;;;4974401;28;20054;-86
2020/12/19 08:11:04;;;;;;;12.70;2.55;;;18.60;99.90;;;;;;4956667;28;20030;-85
2020/12/19 08:16:01;;;;;;;14.45;2.47;;;18.50;99.90;;;;;;4989982;23;20059;-85
2020/12/19 08:18:29;;;;;;;19.27;4.38;;;18.60;99.90;;;;;;4974449;28;20027;-80
2020/12/19 08:20:56;;;;;;;15.68;2.20;;;18.50;99.90;;;;;;4973868;28;20038;-85
2020/12/19 08:23:24;;;;;;;13.65;3.28;;;18.50;99.90;;;;;;4970848;28;20393;-85
2020/12/19 08:25:54;;;;;;;14.77;2.35;;;18.40;99.90;;;;;;4972615;28;20037;-85
2020/12/19 08:28:22;;;;;;;13.23;2.40;;;18.40;99.90;;;;;;4973044;28;20495;-85
2020/12/19 08:30:49;;;;;;;10.80;2.53;;;18.50;99.90;;;;;;4981052;23;20051;-84
2020/12/19 08:33:18;;;;;;;13.55;2.22;;;18.50;99.90;;;;;;4973291;28;20034;-83
2020/12/19 08:35:46;;;;;;;11.82;2.47;;;18.50;99.90;;;;;;4972307;28;20031;-86
2020/12/19 08:38:23;;;;;;;19.25;7.50;;;18.60;99.90;;;;;;4973426;28;20019;-85
2020/12/19 08:40:52;;;;;;;15.45;3.88;;;18.60;99.90;;;;;;4973623;28;20154;-89
2020/12/19 08:43:20;;;;;;;11.73;2.63;;;18.60;99.90;;;;;;4969363;28;20024;-82
2020/12/19 08:45:52;;;;;;;11.20;2.13;;;18.60;99.90;;;;;;4968418;28;20031;-82
2020/12/19 08:48:20;;;;;;;13.23;2.20;;;18.60;99.90;;;;;;4971530;28;20154;-81
2020/12/19 08:50:50;;;;;;;13.52;3.17;;;18.60;99.90;;;;;;4954974;28;20050;-82
2020/12/19 08:53:22;;;;;;;18.38;4.60;;;18.60;99.90;;;;;;4972604;28;20110;-81
2020/12/19 08:55:50;;;;;;;11.98;2.60;;;18.60;99.90;;;;;;4963710;28;20049;-82
2020/12/19 08:58:35;;;;;;;13.15;3.10;;;18.60;99.90;;;;;;4971981;28;20042;-81
2020/12/19 09:01:16;;;;;;;15.23;3.13;;;18.60;99.90;;;;;;4962676;28;20034;-82
2020/12/19 09:03:45;;;;;;;17.38;4.13;;;18.60;99.90;;;;;;4970798;23;20444;-81
2020/12/19 09:06:14;;;;;;;12.48;3.50;;;18.60;99.90;;;;;;4959076;28;20053;-82
2020/12/19 09:08:45;;;;;;;18.73;3.72;;;18.70;99.90;;;;;;4972128;28;20054;-82
2020/12/19 09:11:31;;;;;;;12.85;3.00;;;18.70;99.90;;;;;;4972033;28;20396;-80
2020/12/19 09:14:07;;;;;;;13.25;3.03;;;18.70;99.90;;;;;;4972813;28;20113;-82
2020/12/19 09:16:35;;;;;;;16.23;3.08;;;18.60;99.90;;;;;;4974240;28;20022;-81
2020/12/19 09:19:12;;;;;;;17.40;3.25;;;18.60;99.90;;;;;;4974250;28;20392;-82
2020/12/19 09:21:41;;;;;;;12.05;3.88;;;18.60;99.90;;;;;;4963635;28;20022;-81
2020/12/19 09:24:08;;;;;;;15.98;3.72;;;18.60;99.90;;;;;;4973255;28;20055;-80
2020/12/19 09:26:35;;;;;;;16.08;3.15;;;18.70;99.90;;;;;;4967188;28;20031;-82
2020/12/19 09:29:03;;;;;;;13.07;3.30;;;18.70;99.90;;;;;;4973525;28;20035;-82
2020/12/19 09:31:30;;;;;;;14.65;3.53;;;18.70;99.90;;;;;;4974321;28;20026;-82
2020/12/19 09:33:57;;;;;;;16.05;3.40;;;18.60;99.90;;;;;;4972946;28;20030;-82
2020/12/19 09:36:25;;;;;;;10.70;2.92;;;18.60;99.90;;;;;;4972506;28;20075;-82
2020/12/19 09:38:52;;;;;;;14.18;3.47;;;18.60;99.90;;;;;;4946230;28;20123;-82
2020/12/19 09:41:20;;;;;;;17.60;3.35;;;18.60;99.90;;;;;;4970078;28;20034;-82
2020/12/19 09:43:47;;;;;;;16.65;3.47;;;18.70;99.90;;;;;;4972418;28;20050;-82
2020/12/19 09:46:15;;;;;;;11.15;3.55;;;18.60;99.90;;;;;;4950711;28;20038;-82
2020/12/19 09:48:43;;;;;;;15.25;4.05;;;18.60;99.90;;;;;;4971096;28;20031;-82
2020/12/19 09:51:11;;;;;;;9.93;3.20;;;18.60;99.90;;;;;;4970949;28;20023;-82
2020/12/19 09:53:39;;;;;;;13.50;3.25;;;18.60;99.90;;;;;;4954232;28;20532;-82
2020/12/19 09:56:07;;;;;;;13.98;3.00;;;18.60;99.90;;;;;;4959262;28;20410;-82
2020/12/19 09:58:34;;;;;;;17.45;4.45;;;18.50;99.90;;;;;;4963836;28;20114;-81
2020/12/19 10:01:02;;;;;;;11.95;4.50;;;18.60;99.90;;;;;;4971271;28;20027;-83
2020/12/19 10:03:30;;;;;;;20.52;5.22;;;18.60;99.90;;;;;;4946123;28;20027;-81
2020/12/19 10:05:57;;;;;;;12.65;3.38;;;18.60;99.90;;;;;;5000683;23;20025;-81
2020/12/19 10:08:26;;;;;;;16.15;3.88;;;18.60;99.90;;;;;;4977950;23;20058;-82
2020/12/19 10:10:53;;;;;;;21.05;4.60;;;18.60;99.90;;;;;;4972544;28;20022;-83
2020/12/19 10:13:21;;;;;;;10.50;3.20;;;18.70;99.90;;;;;;4989159;23;20531;-82
2020/12/19 10:15:48;;;;;;;16.75;4.57;;;18.70;99.90;;;;;;4956523;28;20035;-82
2020/12/19 10:18:16;;;;;;;15.70;5.32;;;18.70;99.90;;;;;;4955705;28;20027;-82
2020/12/19 10:20:43;;;;;;;17.30;4.65;;;18.70;99.90;;;;;;4978761;28;20043;-82
2020/12/19 10:23:10;;;;;;;14.82;4.25;;;18.70;99.90;;;;;;4995319;23;20059;-82
2020/12/19 10:25:38;;;;;;;14.85;3.45;;;18.70;99.90;;;;;;4990044;28;20027;-82
2020/12/19 10:28:05;;;;;;;18.58;3.40;;;18.70;99.90;;;;;;4983420;28;20025;-82
2020/12/19 10:30:33;;;;;;;16.60;4.22;;;18.70;99.90;;;;;;4988255;28;20526;-82
2020/12/19 10:33:00;;;;;;;20.50;5.00;;;18.70;99.90;;;;;;4971425;28;20026;-82
2020/12/19 10:35:27;;;;;;;15.65;4.13;;;18.70;99.90;;;;;;4973085;28;20019;-83
2020/12/19 10:37:55;;;;;;;19.95;5.13;;;18.70;99.90;;;;;;4973482;23;20035;-83
2020/12/19 10:40:22;;;;;;;19.85;4.20;;;18.70;99.90;;;;;;4948979;28;20534;-85
2020/12/19 10:42:49;;;;;;;17.55;4.15;;;18.70;99.90;;;;;;4951401;28;20039;-83
2020/12/19 10:45:16;;;;;;;18.73;3.00;;;18.70;99.90;;;;;;4962496;28;20027;-84
2020/12/19 10:47:44;;;;;;;15.93;3.28;;;18.70;99.90;;;;;;4943671;28;20561;-83
2020/12/19 10:50:17;;;;;;;10.55;2.55;;;18.60;99.90;;;;;;4936335;28;20110;-84
2020/12/19 10:52:44;;;;;;;12.52;2.60;;;18.60;99.90;;;;;;4957946;28;20031;-83
2020/12/19 10:55:11;;;;;;;14.70;3.28;;;18.60;99.90;;;;;;4958418;28;20023;-84
2020/12/19 10:57:38;;;;;;;16.75;2.47;;;18.60;99.90;;;;;;4949189;29;20020;-84
2020/12/19 11:00:07;;;;;;;13.13;2.60;;;18.60;99.90;;;;;;4947742;28;20554;-84
2020/12/19 11:02:34;;;;;;;15.77;3.88;;;18.50;99.90;;;;;;4945933;29;20125;-84
2020/12/19 11:05:01;;;;;;;20.02;4.28;;;18.60;99.90;;;;;;4968486;28;20042;-84
2020/12/19 11:07:28;;;;;;;17.52;3.33;;;18.60;99.90;;;;;;4968328;28;20121;-83
2020/12/19 11:09:56;;;;;;;9.25;2.17;;;18.60;99.90;;;;;;4956339;28;20039;-85
2020/12/19 11:12:23;;;;;;;19.50;3.72;;;18.60;99.90;;;;;;4963886;23;20051;-84
2020/12/19 11:14:50;;;;;;;13.98;2.70;;;18.60;99.90;;;;;;4954206;28;20038;-85
2020/12/19 11:17:18;;;;;;;17.92;3.65;;;18.60;99.90;;;;;;4953712;28;20030;-84
2020/12/19 11:19:45;;;;;;;19.10;3.28;;;18.60;99.90;;;;;;4956263;28;20130;-84
2020/12/19 11:22:12;;;;;;;16.58;3.78;;;18.50;99.90;;;;;;4954202;28;20019;-84
2020/12/19 11:24:40;;;;;;;9.38;2.65;;;18.50;99.90;;;;;;4954704;28;20035;-84
2020/12/19 11:27:07;;;;;;;16.98;3.38;;;18.50;99.90;;;;;;4955458;28;20027;-84
2020/12/19 11:29:34;;;;;;;13.50;2.30;;;18.50;99.90;;;;;;4955935;28;20043;-85
2020/12/19 11:32:05;;;;;;;9.02;2.30;;;18.50;99.90;;;;;;4953751;28;20027;-85
2020/12/19 11:34:34;;;;;;;9.73;1.98;;;18.50;99.90;;;;;;4950532;28;20030;-84
2020/12/19 11:37:01;;;;;;;15.38;3.58;;;18.50;99.90;;;;;;4936085;28;20023;-85
2020/12/19 11:39:28;;;;;;;15.60;4.03;;;18.50;99.90;;;;;;4950894;28;20045;-85
2020/12/19 11:42:02;;;;;;;10.20;2.75;;;18.50;99.90;;;;;;4935456;28;20107;-85
2020/12/19 11:44:29;;;;;;;15.50;2.93;;;18.50;99.90;;;;;;4951140;28;20032;-85
2020/12/19 11:46:56;;;;;;;10.40;2.80;;;18.50;99.90;;;;;;4947214;28;20396;-85
2020/12/19 11:49:23;;;;;;;12.25;3.58;;;18.50;99.90;;;;;;4951636;28;20054;-85
2020/12/19 11:51:51;;;;;;;12.85;4.35;;;18.50;99.90;;;;;;4949684;28;20023;-85
2020/12/19 11:54:18;;;;;;;11.57;3.63;;;18.50;99.90;;;;;;4954788;28;20031;-85
2020/12/19 11:56:45;;;;;;;11.38;3.65;;;18.50;99.90;;;;;;4952347;28;20110;-84
2020/12/19 11:59:13;;;;;;;14.00;3.88;;;18.50;99.90;;;;;;4937147;29;20038;-85
2020/12/19 12:01:40;;;;;;;14.30;3.92;;;18.50;99.90;;;;;;4954869;28;20035;-84
2020/12/19 12:04:07;;;;;;;12.93;3.17;;;18.50;99.90;;;;;;4942000;28;20055;-85
2020/12/19 12:06:35;;;;;;;8.20;2.38;;;18.50;99.90;;;;;;4952417;28;20031;-86
2020/12/19 12:09:04;;;;;;;10.38;2.22;;;18.50;99.90;;;;;;4936119;29;20055;-86
2020/12/19 12:11:33;;;;;;;15.27;3.83;;;18.40;99.90;;;;;;4934899;29;20048;-85
2020/12/19 12:14:01;;;;;;;16.58;3.22;;;18.40;99.90;;;;;;4999065;23;20508;-85
2020/12/19 12:16:28;;;;;;;15.43;3.20;;;18.40;99.90;;;;;;4962506;23;20054;-86
2020/12/19 12:18:57;;;;;;;12.68;3.33;;;18.50;99.90;;;;;;4974089;28;20031;-85
2020/12/19 12:21:26;;;;;;;10.70;2.42;;;18.50;99.90;;;;;;4963058;23;20121;-86
2020/12/19 12:23:53;;;;;;;11.98;2.95;;;18.50;99.90;;;;;;4973878;28;20102;-86
2020/12/19 12:26:27;;;;;;;15.38;3.17;;;18.40;99.90;;;;;;4974277;28;20484;-86
2020/12/19 12:28:55;;;;;;;10.55;2.30;;;18.50;99.90;;;;;;4946888;23;20039;-85
2020/12/19 12:31:24;;;;;;;10.77;2.40;;;18.50;99.90;;;;;;4973749;28;20101;-86
2020/12/19 12:33:52;;;;;;;10.70;2.67;;;18.50;99.90;;;;;;4968285;28;20046;-85
2020/12/19 12:36:20;;;;;;;12.13;2.55;;;18.40;99.90;;;;;;4939941;28;20110;-86
2020/12/19 12:38:48;;;;;;;10.52;2.45;;;18.40;99.90;;;;;;4959537;28;20027;-85
2020/12/19 12:41:15;;;;;;;11.80;3.30;;;18.40;99.90;;;;;;4953428;28;20027;-86
2020/12/19 12:43:46;;;;;;;14.40;2.53;;;18.40;99.90;;;;;;4951200;28;20023;-86
2020/12/19 12:46:14;;;;;;;10.98;2.78;;;18.50;99.90;;;;;;4960263;23;20543;-85
2020/12/19 12:48:43;;;;;;;10.88;3.13;;;18.40;99.90;;;;;;4949895;28;20020;-85